Time;durP1;ratioP1;P1;durP2;ratioP2;P2;SDS_P1;SDS_P2;PMS_P1;PMS_P2;Temp;Humidity;BMP_temperature;BMP_pressure;BME280_temperature;BME280_humidity;BME280_pressure;Samples;Min_cycle;Max_cycle;Signal;HPM_P1;HPM_P2
2023/06/05 00:00:06;;;;;;;4.43;1.50;;;17.80;61.70;;;;;;5047138;28;20196;-66
2023/06/05 00:02:34;;;;;;;5.33;1.80;;;17.80;61.50;;;;;;5050010;28;20180;-68
2023/06/05 00:05:01;;;;;;;7.07;1.40;;;17.80;61.90;;;;;;5054078;28;20215;-65
2023/06/05 00:07:29;;;;;;;7.07;1.60;;;17.90;62.20;;;;;;5054045;28;20191;-65
2023/06/05 00:09:56;;;;;;;7.17;1.60;;;17.90;62.30;;;;;;5038814;28;20187;-67
2023/06/05 00:12:23;;;;;;;9.07;1.50;;;18.00;62.20;;;;;;5053606;28;20535;-72
2023/06/05 00:14:50;;;;;;;9.50;1.40;;;18.10;61.80;;;;;;5053585;28;20186;-69
2023/06/05 00:17:19;;;;;;;4.10;1.70;;;18.20;61.90;;;;;;5054148;28;20179;-68
2023/06/05 00:19:46;;;;;;;3.87;1.37;;;18.10;61.10;;;;;;5053840;28;20192;-69
2023/06/05 00:22:14;;;;;;;3.37;1.33;;;18.10;60.70;;;;;;5052186;28;20578;-64
2023/06/05 00:24:41;;;;;;;8.57;1.60;;;18.10;60.60;;;;;;5052056;28;20219;-68
2023/06/05 00:27:08;;;;;;;6.53;1.40;;;18.30;60.70;;;;;;5051977;28;20188;-64
2023/06/05 00:29:35;;;;;;;7.83;1.87;;;18.30;59.50;;;;;;5050769;28;20215;-63
2023/06/05 00:32:03;;;;;;;5.80;1.40;;;18.50;59.80;;;;;;5054616;28;20281;-64
2023/06/05 00:34:30;;;;;;;7.47;1.60;;;18.40;58.70;;;;;;5053135;28;20195;-63
2023/06/05 00:36:57;;;;;;;6.83;1.50;;;18.30;58.70;;;;;;5053414;28;20225;-64
2023/06/05 00:39:25;;;;;;;5.83;1.70;;;18.40;60.00;;;;;;5053210;28;20233;-64
2023/06/05 00:41:52;;;;;;;7.33;1.30;;;18.40;59.60;;;;;;5052369;28;20188;-64
2023/06/05 00:44:20;;;;;;;4.87;1.63;;;18.40;58.90;;;;;;5049786;28;20751;-64
2023/06/05 00:46:51;;;;;;;2.97;1.20;;;18.50;59.60;;;;;;5052623;28;20329;-64
2023/06/05 00:49:19;;;;;;;5.30;1.20;;;18.50;58.70;;;;;;5052424;28;20193;-64
2023/06/05 00:51:47;;;;;;;3.10;1.10;;;18.70;58.20;;;;;;5052363;28;20191;-65
2023/06/05 00:54:14;;;;;;;6.10;1.70;;;18.80;57.70;;;;;;5052739;28;20634;-67
2023/06/05 00:56:45;;;;;;;5.37;1.40;;;18.80;58.20;;;;;;5052666;28;20196;-64
2023/06/05 00:59:13;;;;;;;3.37;1.20;;;18.80;57.70;;;;;;5053051;28;20176;-64
2023/06/05 01:01:42;;;;;;;5.40;1.27;;;18.90;57.20;;;;;;5052437;28;20192;-65
2023/06/05 01:04:10;;;;;;;7.73;1.60;;;18.90;55.60;;;;;;5053115;28;20281;-65
2023/06/05 01:06:41;;;;;;;6.53;1.07;;;19.10;55.70;;;;;;5051065;28;20207;-66
2023/06/05 01:09:10;;;;;;;4.00;1.23;;;19.00;54.80;;;;;;5052882;28;20188;-67
2023/06/05 01:11:50;;;;;;;4.63;1.40;;;18.90;55.60;;;;;;5051487;28;20202;-65
2023/06/05 01:14:23;;;;;;;4.27;1.30;;;18.90;55.90;;;;;;5050026;28;20186;-67
2023/06/05 01:16:56;;;;;;;5.33;1.40;;;18.90;55.70;;;;;;5050403;28;20265;-65
2023/06/05 01:19:31;;;;;;;5.87;1.70;;;18.90;56.20;;;;;;5049593;28;20203;-64
2023/06/05 01:21:59;;;;;;;4.50;1.10;;;18.90;56.00;;;;;;5048794;28;21418;-64
2023/06/05 01:24:30;;;;;;;5.07;1.20;;;18.90;54.90;;;;;;5050851;28;20684;-67
2023/06/05 01:27:17;;;;;;;7.53;1.67;;;18.80;55.50;;;;;;5051379;28;20646;-64
2023/06/05 01:29:56;;;;;;;8.53;1.30;;;18.80;56.10;;;;;;5047191;28;20190;-64
2023/06/05 01:32:36;;;;;;;5.43;1.33;;;18.90;56.90;;;;;;5050440;28;20280;-64
2023/06/05 01:35:16;;;;;;;6.30;1.70;;;18.90;55.00;;;;;;5049159;28;20190;-64
2023/06/05 01:37:48;;;;;;;3.37;1.30;;;18.80;55.60;;;;;;5051004;28;20187;-65
2023/06/05 01:40:17;;;;;;;5.53;1.43;;;18.80;55.60;;;;;;5049420;28;20816;-64
2023/06/05 01:42:46;;;;;;;5.97;1.30;;;18.80;56.50;;;;;;5045931;28;20198;-66
2023/06/05 01:45:16;;;;;;;6.67;1.77;;;18.80;56.80;;;;;;5046659;28;20684;-66
2023/06/05 01:47:43;;;;;;;7.07;1.37;;;18.90;57.20;;;;;;5051309;28;20188;-65
2023/06/05 01:50:14;;;;;;;2.63;1.10;;;18.90;57.50;;;;;;5039455;28;20210;-65
2023/06/05 01:52:42;;;;;;;5.73;1.60;;;18.80;57.20;;;;;;5051185;28;20706;-64
2023/06/05 01:55:15;;;;;;;5.77;1.60;;;18.90;57.90;;;;;;5047606;28;20546;-64
2023/06/05 01:57:43;;;;;;;7.83;2.17;;;19.00;59.00;;;;;;5049852;28;20566;-65
2023/06/05 02:00:15;;;;;;;8.53;2.00;;;19.20;60.70;;;;;;5043778;28;20193;-65
2023/06/05 02:02:51;;;;;;;11.27;2.20;;;18.90;62.90;;;;;;5051316;28;20192;-64
2023/06/05 02:05:22;;;;;;;9.13;2.00;;;18.90;64.10;;;;;;5047466;28;20269;-65
2023/06/05 02:07:53;;;;;;;8.80;2.07;;;18.80;64.40;;;;;;5051546;28;20180;-67
2023/06/05 02:10:21;;;;;;;9.27;2.03;;;18.70;65.50;;;;;;5049055;28;20195;-64
2023/06/05 02:12:48;;;;;;;6.93;2.03;;;18.70;65.60;;;;;;5050889;28;20661;-65
2023/06/05 02:15:16;;;;;;;6.73;1.80;;;18.70;66.40;;;;;;5051711;28;20245;-67
2023/06/05 02:17:52;;;;;;;9.63;2.17;;;18.50;67.30;;;;;;5051217;28;20586;-65
2023/06/05 02:20:25;;;;;;;9.83;2.27;;;18.50;67.40;;;;;;5051357;28;20198;-65
2023/06/05 02:22:54;;;;;;;7.60;1.80;;;18.30;67.80;;;;;;5051806;28;20234;-65
2023/06/05 02:25:25;;;;;;;5.23;1.50;;;18.40;67.70;;;;;;5048661;28;20241;-66
2023/06/05 02:27:54;;;;;;;10.37;2.10;;;18.70;67.10;;;;;;5044989;28;20599;-65
2023/06/05 02:30:22;;;;;;;7.93;1.67;;;18.80;66.80;;;;;;5048634;28;20188;-65
2023/06/05 02:33:00;;;;;;;7.33;2.17;;;18.70;66.50;;;;;;5050876;28;20278;-70
2023/06/05 02:35:29;;;;;;;11.33;2.70;;;18.80;66.70;;;;;;5050530;28;20211;-64
2023/06/05 02:37:57;;;;;;;9.47;1.73;;;18.70;66.90;;;;;;5051211;28;20545;-64
2023/06/05 02:40:24;;;;;;;9.83;2.20;;;18.50;66.80;;;;;;5049026;28;20196;-64
2023/06/05 02:42:52;;;;;;;13.47;2.47;;;18.70;67.30;;;;;;5049226;28;20192;-64
2023/06/05 02:45:19;;;;;;;9.53;2.27;;;18.80;67.20;;;;;;5050522;28;20574;-64
2023/06/05 02:47:48;;;;;;;9.20;2.03;;;18.60;67.10;;;;;;5049551;28;20650;-66
2023/06/05 02:50:15;;;;;;;7.73;1.83;;;18.80;66.60;;;;;;5049516;28;20188;-65
2023/06/05 02:52:43;;;;;;;9.00;2.17;;;18.80;66.50;;;;;;5050072;28;20188;-65
2023/06/05 02:55:11;;;;;;;8.40;2.00;;;18.90;65.60;;;;;;5050644;28;20190;-64
2023/06/05 02:57:41;;;;;;;7.93;2.30;;;19.00;65.10;;;;;;5050122;28;20192;-65
2023/06/05 03:00:14;;;;;;;7.00;2.10;;;18.80;64.20;;;;;;5051710;28;20172;-64
2023/06/05 03:02:42;;;;;;;9.60;2.07;;;18.80;63.80;;;;;;5049980;28;20172;-65
2023/06/05 03:05:09;;;;;;;6.77;1.33;;;19.00;63.70;;;;;;5051279;28;20215;-65
2023/06/05 03:07:37;;;;;;;8.53;1.50;;;19.00;63.30;;;;;;5049508;28;20752;-70
2023/06/05 03:10:05;;;;;;;8.10;2.03;;;19.00;63.40;;;;;;5051369;28;20217;-71
2023/06/05 03:12:32;;;;;;;8.40;2.00;;;19.00;63.80;;;;;;5050344;28;20176;-66
2023/06/05 03:15:00;;;;;;;8.33;1.73;;;18.90;63.50;;;;;;5051295;28;20665;-64
2023/06/05 03:17:28;;;;;;;10.67;2.50;;;18.80;63.70;;;;;;5045895;28;20264;-65
2023/06/05 03:19:56;;;;;;;8.60;1.97;;;19.00;63.50;;;;;;5049829;28;20192;-65
2023/06/05 03:22:24;;;;;;;8.37;1.87;;;19.10;63.80;;;;;;5046881;28;20177;-69
2023/06/05 03:24:51;;;;;;;5.23;1.87;;;19.10;63.20;;;;;;5050933;28;20231;-65
2023/06/05 03:27:19;;;;;;;12.10;2.20;;;19.30;62.20;;;;;;5049762;28;20604;-65
2023/06/05 03:29:46;;;;;;;8.20;1.77;;;19.40;62.50;;;;;;5050500;28;20220;-68
2023/06/05 03:32:14;;;;;;;9.07;1.87;;;19.60;62.20;;;;;;5051044;28;20259;-64
2023/06/05 03:34:43;;;;;;;8.83;1.60;;;19.70;61.10;;;;;;5049403;28;20184;-64
2023/06/05 03:37:10;;;;;;;5.13;1.63;;;19.50;59.80;;;;;;5047340;28;20246;-68
2023/06/05 03:39:37;;;;;;;7.00;1.77;;;19.60;59.10;;;;;;5053611;28;20194;-67
2023/06/05 03:42:06;;;;;;;4.67;1.30;;;19.50;60.60;;;;;;5052835;28;20187;-67
2023/06/05 03:44:34;;;;;;;6.13;1.53;;;19.50;60.30;;;;;;5052704;28;20204;-65
2023/06/05 03:47:01;;;;;;;7.77;1.80;;;19.60;58.60;;;;;;5053326;28;20266;-65
2023/06/05 03:49:29;;;;;;;6.33;1.50;;;20.20;58.40;;;;;;5051389;28;20972;-65
2023/06/05 03:52:00;;;;;;;6.97;1.60;;;20.60;56.20;;;;;;5053493;28;20222;-64
2023/06/05 03:54:33;;;;;;;6.87;1.60;;;20.80;54.80;;;;;;5036471;28;20203;-64
2023/06/05 03:57:02;;;;;;;4.37;1.40;;;20.60;55.50;;;;;;5050844;28;20214;-68
2023/06/05 03:59:29;;;;;;;5.77;1.43;;;20.30;55.70;;;;;;5051458;28;20188;-66
2023/06/05 04:02:00;;;;;;;8.47;1.87;;;20.30;56.20;;;;;;5053306;28;20187;-64
2023/06/05 04:04:27;;;;;;;6.60;1.70;;;20.30;55.90;;;;;;5052007;28;20265;-71
2023/06/05 04:06:57;;;;;;;4.53;1.20;;;20.00;55.20;;;;;;5054182;28;20186;-64
2023/06/05 04:09:25;;;;;;;4.60;1.07;;;19.60;55.20;;;;;;5057201;28;20274;-67
2023/06/05 04:11:52;;;;;;;3.70;1.20;;;19.50;55.50;;;;;;5053325;28;20709;-70
2023/06/05 04:14:19;;;;;;;3.73;1.10;;;19.50;56.50;;;;;;5050196;28;20191;-67
2023/06/05 04:16:47;;;;;;;5.70;1.53;;;19.30;57.30;;;;;;5051439;28;20263;-77
2023/06/05 04:19:14;;;;;;;5.77;1.50;;;19.30;57.60;;;;;;5048038;28;20189;-72
2023/06/05 04:21:42;;;;;;;7.67;1.80;;;19.00;60.60;;;;;;5032641;28;20552;-72
2023/06/05 04:24:10;;;;;;;8.20;1.70;;;18.40;68.40;;;;;;5049087;28;20537;-72
2023/06/05 04:26:41;;;;;;;3.67;1.30;;;18.20;70.90;;;;;;5052665;28;20197;-72
2023/06/05 04:29:15;;;;;;;6.10;1.73;;;18.00;72.40;;;;;;5053144;28;20218;-72
2023/06/05 04:31:43;;;;;;;11.73;1.60;;;17.80;74.20;;;;;;5035724;28;20261;-74
2023/06/05 04:34:11;;;;;;;6.50;1.57;;;17.70;74.70;;;;;;5052894;28;20246;-70
2023/06/05 04:36:40;;;;;;;6.33;2.20;;;17.30;74.70;;;;;;5048367;28;20190;-70
2023/06/05 04:39:14;;;;;;;6.87;1.37;;;17.10;76.00;;;;;;5051188;28;20187;-72
2023/06/05 04:41:46;;;;;;;6.70;1.67;;;17.00;76.70;;;;;;5048112;28;20213;-74
2023/06/05 04:44:16;;;;;;;5.00;1.27;;;17.00;77.40;;;;;;5053489;28;20219;-67
2023/06/05 04:46:44;;;;;;;7.90;1.50;;;16.80;77.30;;;;;;5048754;28;20654;-70
2023/06/05 04:49:13;;;;;;;2.87;1.20;;;16.70;79.30;;;;;;5050255;28;20193;-71
2023/06/05 04:51:41;;;;;;;7.77;1.73;;;16.60;80.30;;;;;;5049408;28;20276;-65
2023/06/05 04:54:08;;;;;;;5.53;1.30;;;16.60;81.60;;;;;;5050275;28;20187;-68
2023/06/05 04:56:36;;;;;;;7.07;1.50;;;16.50;81.30;;;;;;5033512;28;20203;-68
2023/06/05 04:59:04;;;;;;;6.80;1.83;;;16.40;81.90;;;;;;5050514;28;20736;-66
2023/06/05 05:01:34;;;;;;;7.17;1.67;;;16.30;81.50;;;;;;5045360;28;20177;-66
2023/06/05 05:04:02;;;;;;;6.40;1.37;;;16.40;81.60;;;;;;5051930;28;20688;-71
2023/06/05 05:06:31;;;;;;;4.97;1.50;;;16.30;80.80;;;;;;5047021;28;20209;-66
2023/06/05 05:08:59;;;;;;;7.03;1.50;;;16.40;80.20;;;;;;5049313;28;20537;-67
2023/06/05 05:11:26;;;;;;;4.43;1.23;;;16.60;80.30;;;;;;5051205;28;20303;-66
2023/06/05 05:13:54;;;;;;;4.27;1.20;;;16.70;79.50;;;;;;5049731;28;20549;-67
2023/06/05 05:16:22;;;;;;;6.87;1.50;;;16.80;79.50;;;;;;5049103;28;20183;-67
2023/06/05 05:18:55;;;;;;;6.13;1.27;;;16.90;78.80;;;;;;5048444;28;20263;-65
2023/06/05 05:21:23;;;;;;;3.30;1.37;;;17.10;78.10;;;;;;5033962;28;20187;-66
2023/06/05 05:23:51;;;;;;;2.80;1.13;;;17.10;78.00;;;;;;5049694;28;20218;-68
2023/06/05 05:26:18;;;;;;;6.00;1.80;;;17.10;76.40;;;;;;5049078;28;20196;-70
2023/06/05 05:28:45;;;;;;;6.50;1.40;;;17.20;76.60;;;;;;5051617;28;20189;-69
2023/06/05 05:31:13;;;;;;;12.43;1.57;;;17.30;75.80;;;;;;5050978;28;20818;-69
2023/06/05 05:33:40;;;;;;;5.43;1.10;;;17.70;74.70;;;;;;5046969;28;20285;-72
2023/06/05 05:36:07;;;;;;;6.00;3.50;;;17.80;73.00;;;;;;5047504;28;20273;-74
2023/06/05 05:38:35;;;;;;;1.93;1.00;;;17.80;72.90;;;;;;5050932;28;20257;-71
2023/06/05 05:41:02;;;;;;;11.37;1.50;;;18.10;72.80;;;;;;5048103;28;20191;-71
2023/06/05 05:43:30;;;;;;;4.80;1.10;;;19.10;69.60;;;;;;5049257;28;20694;-72
2023/06/05 05:45:57;;;;;;;4.53;1.30;;;19.80;66.30;;;;;;5051634;28;20196;-71
2023/06/05 05:48:25;;;;;;;2.97;1.10;;;20.30;64.90;;;;;;5048028;28;20222;-71
2023/06/05 05:50:52;;;;;;;2.00;0.90;;;20.50;62.20;;;;;;5046696;28;20642;-67
2023/06/05 05:53:19;;;;;;;3.47;1.00;;;20.80;60.90;;;;;;5049687;28;20202;-72
2023/06/05 05:55:47;;;;;;;2.33;0.90;;;20.70;61.80;;;;;;5045924;28;20190;-66
2023/06/05 05:58:15;;;;;;;2.53;1.10;;;20.50;61.80;;;;;;5049375;28;20653;-71
2023/06/05 06:00:42;;;;;;;3.73;1.17;;;19.80;63.00;;;;;;5050677;28;20696;-67
2023/06/05 06:03:10;;;;;;;4.33;1.10;;;18.90;66.40;;;;;;5048456;28;20180;-68
2023/06/05 06:05:38;;;;;;;4.07;0.90;;;18.40;67.50;;;;;;5048242;28;20220;-73
2023/06/05 06:08:06;;;;;;;4.47;1.20;;;18.10;68.40;;;;;;5050743;28;20646;-68
2023/06/05 06:10:34;;;;;;;5.53;2.80;;;17.70;69.50;;;;;;5049387;28;20192;-67
2023/06/05 06:13:01;;;;;;;3.37;0.93;;;17.40;71.00;;;;;;5048993;28;20183;-67
2023/06/05 06:15:28;;;;;;;3.53;0.93;;;17.30;71.30;;;;;;5045204;28;20226;-66
2023/06/05 06:17:56;;;;;;;4.60;1.27;;;17.10;72.30;;;;;;5050422;28;20176;-70
2023/06/05 06:20:24;;;;;;;3.87;1.30;;;17.00;72.80;;;;;;5048809;28;20645;-70
2023/06/05 06:22:51;;;;;;;4.03;0.90;;;16.90;73.60;;;;;;5050561;28;20195;-75
2023/06/05 06:25:25;;;;;;;5.13;0.93;;;16.70;74.20;;;;;;5047970;28;21569;-71
2023/06/05 06:27:53;;;;;;;4.53;1.03;;;16.70;74.80;;;;;;5045777;28;20198;-67
2023/06/05 06:30:21;;;;;;;4.47;1.20;;;16.60;75.20;;;;;;5048413;28;20218;-68
2023/06/05 06:32:49;;;;;;;4.53;1.00;;;16.60;75.70;;;;;;5048052;28;20198;-73
2023/06/05 06:35:16;;;;;;;5.00;1.27;;;16.50;75.90;;;;;;5046871;28;20187;-67
2023/06/05 06:37:44;;;;;;;4.77;1.20;;;16.40;76.10;;;;;;5045199;28;20270;-70
2023/06/05 06:40:12;;;;;;;3.40;1.13;;;16.40;76.10;;;;;;5045851;28;20262;-70
2023/06/05 06:42:39;;;;;;;5.43;1.13;;;16.40;76.20;;;;;;5045407;28;20175;-66
2023/06/05 06:45:08;;;;;;;5.07;1.50;;;16.50;76.40;;;;;;5050684;28;20297;-67
2023/06/05 06:47:35;;;;;;;8.93;1.90;;;16.50;76.60;;;;;;5048415;28;20184;-67
2023/06/05 06:50:03;;;;;;;5.47;1.63;;;16.50;76.40;;;;;;5050065;28;20195;-66
2023/06/05 06:52:30;;;;;;;7.00;1.60;;;16.50;76.90;;;;;;5050236;28;20201;-69
2023/06/05 06:54:58;;;;;;;3.47;1.20;;;16.50;76.70;;;;;;5050237;28;20188;-66
2023/06/05 06:57:25;;;;;;;4.47;1.50;;;16.50;76.90;;;;;;5050146;28;20187;-65
2023/06/05 06:59:53;;;;;;;4.80;1.10;;;16.40;76.80;;;;;;5046687;28;20199;-70
2023/06/05 07:02:25;;;;;;;4.70;1.60;;;16.40;77.00;;;;;;5047567;28;20176;-67
2023/06/05 07:04:55;;;;;;;6.70;1.50;;;16.40;77.40;;;;;;5048389;28;20206;-67
2023/06/05 07:07:22;;;;;;;4.67;1.47;;;16.30;77.40;;;;;;5048587;28;20183;-66
2023/06/05 07:09:51;;;;;;;5.23;1.40;;;16.30;77.50;;;;;;5051149;28;20220;-69
2023/06/05 07:12:20;;;;;;;2.30;1.10;;;16.20;77.60;;;;;;5050785;28;20647;-68
2023/06/05 07:14:47;;;;;;;4.10;1.33;;;16.30;77.90;;;;;;5051441;28;20189;-73
2023/06/05 07:17:14;;;;;;;5.20;1.47;;;16.30;78.30;;;;;;5054253;28;20191;-67
2023/06/05 07:19:42;;;;;;;4.87;1.60;;;16.30;78.10;;;;;;5049644;28;20314;-70
2023/06/05 07:22:09;;;;;;;6.70;1.70;;;16.30;78.20;;;;;;5053050;28;20201;-67
2023/06/05 07:24:41;;;;;;;5.47;1.50;;;16.30;78.50;;;;;;5054412;28;20213;-68
2023/06/05 07:27:09;;;;;;;3.97;1.60;;;16.20;78.50;;;;;;5053303;28;20306;-68
2023/06/05 07:29:37;;;;;;;8.33;2.00;;;16.20;78.60;;;;;;5054701;28;20197;-67
2023/06/05 07:32:08;;;;;;;7.20;1.93;;;16.20;78.80;;;;;;5042344;28;20238;-67
2023/06/05 07:34:35;;;;;;;8.10;2.30;;;16.30;79.00;;;;;;5053152;28;20641;-72
2023/06/05 07:37:03;;;;;;;6.00;1.63;;;16.20;78.90;;;;;;5052226;28;20195;-75
2023/06/05 07:39:30;;;;;;;5.50;1.57;;;16.20;78.90;;;;;;5053177;28;20598;-71
2023/06/05 07:41:58;;;;;;;4.40;1.73;;;16.10;79.00;;;;;;5042248;28;20529;-69
2023/06/05 07:44:25;;;;;;;5.23;1.47;;;16.10;79.30;;;;;;5053706;28;20541;-66
2023/06/05 07:46:53;;;;;;;5.97;1.93;;;16.20;79.40;;;;;;5053342;28;20180;-68
2023/06/05 07:49:20;;;;;;;10.97;2.03;;;16.20;79.40;;;;;;5050434;28;20195;-69
2023/06/05 07:51:49;;;;;;;9.83;1.93;;;16.10;79.30;;;;;;5051199;28;20521;-70
2023/06/05 07:54:18;;;;;;;5.83;1.77;;;16.10;78.50;;;;;;5052818;28;20201;-68
2023/06/05 07:56:50;;;;;;;4.43;1.60;;;16.10;77.40;;;;;;5053143;28;20572;-66
2023/06/05 07:59:24;;;;;;;6.90;1.67;;;16.10;76.70;;;;;;5051161;28;20233;-72
2023/06/05 08:01:52;;;;;;;7.83;2.13;;;16.20;76.20;;;;;;5049001;28;20210;-70
2023/06/05 08:04:19;;;;;;;4.40;1.63;;;16.30;76.10;;;;;;5053258;28;20266;-66
2023/06/05 08:06:47;;;;;;;6.37;1.60;;;16.30;75.90;;;;;;5046246;28;20195;-71
2023/06/05 08:09:14;;;;;;;8.03;1.60;;;16.30;75.90;;;;;;5048372;28;20566;-72
2023/06/05 08:11:44;;;;;;;7.00;1.47;;;16.30;75.80;;;;;;5053933;28;21142;-65
2023/06/05 08:14:11;;;;;;;3.47;1.80;;;16.30;75.30;;;;;;5049394;28;20664;-69
2023/06/05 08:16:39;;;;;;;7.40;1.30;;;16.30;75.10;;;;;;5051590;28;20186;-70
2023/06/05 08:19:06;;;;;;;5.70;1.70;;;16.30;75.20;;;;;;5049701;28;20228;-66
2023/06/05 08:21:36;;;;;;;4.70;1.33;;;16.30;74.50;;;;;;5052754;28;20193;-71
2023/06/05 08:24:04;;;;;;;3.73;1.60;;;16.30;73.70;;;;;;5053024;28;20306;-70
2023/06/05 08:26:31;;;;;;;6.20;2.00;;;16.30;73.40;;;;;;5051827;28;20225;-67
2023/06/05 08:29:00;;;;;;;6.53;1.87;;;16.40;73.60;;;;;;5049580;28;20189;-69
2023/06/05 08:31:27;;;;;;;5.50;1.63;;;16.30;73.40;;;;;;5036960;28;20759;-67
2023/06/05 08:33:54;;;;;;;4.27;1.37;;;16.40;73.10;;;;;;5053478;28;20559;-65
2023/06/05 08:36:23;;;;;;;5.57;1.90;;;16.30;72.70;;;;;;5049213;28;20247;-66
2023/06/05 08:38:51;;;;;;;6.10;2.10;;;16.30;72.90;;;;;;5052434;28;20182;-66
2023/06/05 08:41:19;;;;;;;4.50;1.60;;;16.40;73.00;;;;;;5052862;28;20543;-67
2023/06/05 08:43:46;;;;;;;9.67;2.10;;;16.30;72.70;;;;;;5048303;28;20797;-71
2023/06/05 08:46:15;;;;;;;7.13;2.10;;;16.30;72.30;;;;;;5047137;28;20321;-67
2023/06/05 08:48:53;;;;;;;6.40;2.27;;;16.30;72.30;;;;;;5051870;28;20523;-68
2023/06/05 08:51:20;;;;;;;8.07;1.93;;;16.30;72.60;;;;;;5051052;28;20597;-66
2023/06/05 08:54:12;;;;;;;5.03;2.00;;;16.20;71.80;;;;;;5051076;28;20183;-69
2023/06/05 08:56:41;;;;;;;2.30;1.33;;;16.30;71.40;;;;;;5050263;28;20187;-70
2023/06/05 08:59:14;;;;;;;6.60;1.70;;;16.30;71.20;;;;;;5052035;28;20263;-68
2023/06/05 09:01:43;;;;;;;4.40;1.70;;;16.30;71.20;;;;;;5051426;28;20234;-67
2023/06/05 09:04:11;;;;;;;4.20;1.50;;;16.30;71.60;;;;;;5055476;28;20221;-69
2023/06/05 09:06:46;;;;;;;2.47;1.30;;;16.30;71.20;;;;;;5047831;28;20787;-72
2023/06/05 09:09:15;;;;;;;2.80;1.33;;;16.30;71.60;;;;;;5053204;28;20210;-67
2023/06/05 09:11:43;;;;;;;2.40;1.47;;;16.30;71.50;;;;;;5051662;28;20216;-67
2023/06/05 09:14:10;;;;;;;2.63;1.60;;;16.30;71.90;;;;;;5050037;28;20219;-67
2023/06/05 09:16:43;;;;;;;4.90;1.80;;;16.30;72.10;;;;;;5048684;28;20185;-69
2023/06/05 09:19:11;;;;;;;4.17;1.80;;;16.30;72.70;;;;;;5046068;28;20270;-72
2023/06/05 09:21:39;;;;;;;3.10;1.70;;;16.30;72.70;;;;;;5044518;28;20179;-63
2023/06/05 09:24:18;;;;;;;2.30;1.77;;;16.30;73.20;;;;;;5046819;28;20215;-69
2023/06/05 09:26:58;;;;;;;7.73;1.73;;;16.30;73.50;;;;;;5050002;28;20752;-72
2023/06/05 09:29:34;;;;;;;5.63;1.73;;;16.30;73.70;;;;;;5048719;28;20193;-73
2023/06/05 09:32:09;;;;;;;4.33;1.60;;;16.30;74.10;;;;;;5051423;28;20632;-73
2023/06/05 09:34:38;;;;;;;4.80;1.73;;;16.30;74.00;;;;;;5052857;28;20211;-73
2023/06/05 09:37:08;;;;;;;5.37;2.70;;;16.30;74.20;;;;;;5048874;28;20202;-74
2023/06/05 09:39:43;;;;;;;14.87;8.80;;;16.20;74.30;;;;;;5050607;28;20265;-77
2023/06/05 09:42:11;;;;;;;33.00;17.93;;;16.30;74.40;;;;;;5054748;28;20185;-71
2023/06/05 09:44:39;;;;;;;59.47;26.83;;;16.30;74.40;;;;;;5052606;28;20297;-73
2023/06/05 09:47:09;;;;;;;17.20;7.97;;;16.30;74.30;;;;;;5051746;28;20185;-74
2023/06/05 09:49:42;;;;;;;11.60;6.27;;;16.20;74.50;;;;;;5051732;28;20689;-73
2023/06/05 09:52:11;;;;;;;35.90;18.53;;;16.30;74.50;;;;;;5045188;28;20232;-74
2023/06/05 09:54:41;;;;;;;13.60;8.03;;;16.20;74.50;;;;;;5051354;28;20183;-69
2023/06/05 09:57:09;;;;;;;8.07;3.40;;;16.30;74.50;;;;;;5050456;28;20282;-73
2023/06/05 09:59:54;;;;;;;4.60;2.00;;;16.20;74.30;;;;;;5038028;28;20203;-68
2023/06/05 10:02:31;;;;;;;14.77;9.57;;;16.30;74.30;;;;;;5049297;28;20194;-73
2023/06/05 10:05:03;;;;;;;21.00;12.80;;;16.30;74.10;;;;;;5049742;28;20214;-72
2023/06/05 10:07:38;;;;;;;12.27;6.00;;;16.30;74.50;;;;;;5047674;28;20233;-71
2023/06/05 10:10:07;;;;;;;6.13;4.27;;;16.30;74.50;;;;;;5047717;28;20593;-72
2023/06/05 10:12:35;;;;;;;6.37;3.30;;;16.30;74.60;;;;;;5040645;28;20231;-74
2023/06/05 10:15:03;;;;;;;5.37;2.57;;;16.30;74.70;;;;;;5052371;28;20240;-65
2023/06/05 10:17:31;;;;;;;4.37;2.80;;;16.30;74.80;;;;;;5049463;28;20176;-71
2023/06/05 10:19:59;;;;;;;4.57;2.20;;;16.40;75.10;;;;;;5052269;28;20183;-70
2023/06/05 10:22:27;;;;;;;5.97;2.40;;;16.40;75.00;;;;;;5051812;28;20179;-72
2023/06/05 10:24:59;;;;;;;2.93;2.27;;;16.40;75.00;;;;;;5051429;28;20207;-74
2023/06/05 10:27:50;;;;;;;10.37;5.10;;;16.40;75.00;;;;;;5047579;28;20183;-77
2023/06/05 10:30:27;;;;;;;6.67;2.50;;;16.40;75.10;;;;;;5045397;28;20575;-68
2023/06/05 10:33:03;;;;;;;5.87;1.90;;;16.30;75.10;;;;;;5033244;28;20593;-70
2023/06/05 10:35:54;;;;;;;6.00;1.80;;;16.30;75.10;;;;;;5050549;28;20190;-67
2023/06/05 10:38:26;;;;;;;5.93;2.50;;;16.30;75.00;;;;;;5051473;28;20186;-67
2023/06/05 10:41:00;;;;;;;7.00;2.23;;;16.30;74.90;;;;;;5051251;28;20652;-67
2023/06/05 10:43:33;;;;;;;4.53;2.23;;;16.20;74.80;;;;;;5049466;28;20239;-75
2023/06/05 10:46:33;;;;;;;4.10;2.00;;;16.30;75.10;;;;;;5049359;28;20215;-71
2023/06/05 10:49:20;;;;;;;3.77;1.97;;;16.30;74.60;;;;;;5049822;28;20285;-66
2023/06/05 10:51:51;;;;;;;8.63;4.53;;;16.20;74.00;;;;;;5048517;28;20183;-72
2023/06/05 10:54:24;;;;;;;11.80;8.17;;;16.20;73.60;;;;;;5050982;28;20180;-71
2023/06/05 10:56:56;;;;;;;8.87;6.17;;;16.30;73.10;;;;;;5044999;28;20176;-67
2023/06/05 10:59:25;;;;;;;10.83;6.50;;;16.30;72.50;;;;;;5048072;28;20370;-67
2023/06/05 11:02:14;;;;;;;14.17;7.03;;;16.30;72.40;;;;;;5044520;28;20189;-74
2023/06/05 11:04:48;;;;;;;8.73;3.90;;;16.40;72.90;;;;;;5047377;28;20612;-70
2023/06/05 11:07:20;;;;;;;4.47;2.30;;;16.50;72.90;;;;;;5051102;28;20178;-73
2023/06/05 11:10:06;;;;;;;7.10;2.70;;;16.40;72.90;;;;;;5047174;28;20187;-69
2023/06/05 11:12:42;;;;;;;5.37;2.53;;;16.50;73.00;;;;;;5047897;28;20180;-77
2023/06/05 11:15:11;;;;;;;5.73;2.70;;;16.50;72.10;;;;;;5045754;28;20186;-67
2023/06/05 11:17:43;;;;;;;7.40;4.20;;;16.40;71.50;;;;;;5049222;28;20171;-71
2023/06/05 11:20:29;;;;;;;6.60;3.40;;;16.40;71.40;;;;;;5045503;28;20185;-72
2023/06/05 11:22:59;;;;;;;10.13;2.53;;;16.50;71.70;;;;;;5046885;28;20232;-71
2023/06/05 11:25:30;;;;;;;3.57;2.07;;;16.50;71.60;;;;;;5050188;28;20234;-68
2023/06/05 11:28:07;;;;;;;5.93;2.17;;;16.50;71.80;;;;;;5046814;28;20180;-68
2023/06/05 11:30:43;;;;;;;5.00;2.10;;;16.60;71.90;;;;;;5048394;28;20612;-72
2023/06/05 11:33:14;;;;;;;6.20;1.87;;;16.50;71.70;;;;;;5049099;28;20184;-75
2023/06/05 11:35:47;;;;;;;3.20;1.90;;;16.50;71.40;;;;;;5048805;28;20187;-66
2023/06/05 11:38:18;;;;;;;5.03;2.07;;;16.50;71.70;;;;;;5050874;28;20208;-70
2023/06/05 11:40:48;;;;;;;3.07;1.50;;;16.40;71.40;;;;;;5047151;28;20207;-72
2023/06/05 11:43:16;;;;;;;3.07;1.90;;;16.40;71.30;;;;;;5050666;28;20184;-71
2023/06/05 11:45:51;;;;;;;4.87;2.40;;;16.50;70.60;;;;;;5049552;28;20230;-68
2023/06/05 11:48:19;;;;;;;3.57;1.90;;;16.40;70.90;;;;;;5048117;28;20176;-69
2023/06/05 11:51:06;;;;;;;4.33;1.50;;;16.30;71.40;;;;;;5043838;28;20186;-71
2023/06/05 11:53:37;;;;;;;5.57;1.97;;;16.30;72.00;;;;;;5049148;28;20196;-69
2023/06/05 11:56:16;;;;;;;2.33;1.77;;;16.30;72.50;;;;;;5047230;28;20184;-69
2023/06/05 11:58:44;;;;;;;3.10;1.90;;;16.40;73.10;;;;;;5051518;28;20745;-72
2023/06/05 12:01:17;;;;;;;3.53;2.13;;;16.40;72.80;;;;;;5054214;28;20187;-68
2023/06/05 12:03:46;;;;;;;3.17;1.60;;;16.40;72.80;;;;;;5054445;28;20207;-71
2023/06/05 12:06:17;;;;;;;3.67;1.70;;;16.40;72.40;;;;;;5053301;28;20199;-74
2023/06/05 12:08:44;;;;;;;6.07;1.80;;;16.40;72.90;;;;;;5052852;28;20271;-75
2023/06/05 12:11:26;;;;;;;3.87;1.80;;;16.30;72.60;;;;;;5050132;28;20193;-73
2023/06/05 12:13:55;;;;;;;2.90;1.80;;;16.40;72.50;;;;;;5051712;28;20657;-71
2023/06/05 12:16:37;;;;;;;2.40;1.77;;;16.30;72.70;;;;;;5056177;28;20178;-71
2023/06/05 12:19:16;;;;;;;3.53;1.90;;;16.30;73.00;;;;;;5049034;28;20184;-76
2023/06/05 12:21:46;;;;;;;4.10;2.10;;;16.30;73.60;;;;;;5053132;28;20268;-67
2023/06/05 12:24:14;;;;;;;3.83;1.77;;;16.30;74.10;;;;;;5054004;28;20222;-75
2023/06/05 12:26:58;;;;;;;3.20;1.80;;;16.30;73.80;;;;;;5047828;28;20245;-71
2023/06/05 12:29:29;;;;;;;2.70;1.73;;;16.40;74.00;;;;;;5049267;28;20194;-68
2023/06/05 12:31:59;;;;;;;3.23;1.90;;;16.30;73.50;;;;;;5047811;28;20231;-72
2023/06/05 12:34:51;;;;;;;3.27;1.67;;;16.40;73.80;;;;;;5051704;28;20191;-73
2023/06/05 12:37:31;;;;;;;3.87;1.70;;;16.30;73.60;;;;;;5049487;28;20184;-67
2023/06/05 12:39:59;;;;;;;3.30;1.63;;;16.30;72.80;;;;;;5053917;28;20183;-68
2023/06/05 12:42:27;;;;;;;3.50;1.60;;;16.30;73.00;;;;;;5051317;28;20194;-73
2023/06/05 12:44:55;;;;;;;2.73;1.70;;;16.30;72.80;;;;;;5051292;28;20222;-74
2023/06/05 12:47:22;;;;;;;6.73;2.00;;;16.40;72.90;;;;;;5049415;28;20186;-69
2023/06/05 12:49:50;;;;;;;6.70;1.97;;;16.30;72.50;;;;;;5051892;28;20176;-69
2023/06/05 12:52:18;;;;;;;3.57;2.40;;;16.30;72.60;;;;;;5051743;28;20544;-68
2023/06/05 12:54:46;;;;;;;8.73;2.27;;;16.30;72.80;;;;;;5053045;28;20253;-75
2023/06/05 12:57:14;;;;;;;4.40;1.70;;;16.30;73.00;;;;;;5052197;28;20191;-72
2023/06/05 12:59:42;;;;;;;3.70;1.77;;;16.30;72.80;;;;;;5053362;28;20184;-67